Time;durP1;ratioP1;P1;durP2;ratioP2;P2;SDS_P1;SDS_P2;PMS_P1;PMS_P2;Temp;Humidity;BMP_temperature;BMP_pressure;BME280_temperature;BME280_humidity;BME280_pressure;Samples;Min_cycle;Max_cycle;Signal;HPM_P1;HPM_P2
2022/07/26 00:00:24;;;;;;;;;;;;;;;;;;4925295;29;19932;-84
2022/07/26 00:02:52;;;;;;;;;;;;;;;;;;4926253;29;19950;-85
2022/07/26 00:05:19;;;;;;;;;;;;;;;;;;4924285;29;19935;-85
2022/07/26 00:07:46;;;;;;;;;;;;;;;;;;4924769;29;19935;-84
2022/07/26 00:10:13;;;;;;;;;;;;;;;;;;4922898;29;19937;-85
2022/07/26 00:12:41;;;;;;;;;;;;;;;;;;4931824;29;19931;-85
2022/07/26 00:15:08;;;;;;;;;;;;;;;;;;4919172;29;19939;-84
2022/07/26 00:17:36;;;;;;;;;;;;;;;;;;4931241;29;19954;-84
2022/07/26 00:20:03;;;;;;;;;;;;;;;;;;4932337;29;19931;-85
2022/07/26 00:22:33;;;;;;;;;;;;;;;;;;4934598;29;19931;-85
2022/07/26 00:25:00;;;;;;;;;;;;;;;;;;4931608;29;19927;-84
2022/07/26 00:27:28;;;;;;;;;;;;;;;;;;4913795;29;19934;-84
2022/07/26 00:29:55;;;;;;;;;;;;;;;;;;4897551;29;20305;-84
2022/07/26 00:32:22;;;;;;;;;;;;;;;;;;4913570;29;19936;-84
2022/07/26 00:34:50;;;;;;;;;;;;;;;;;;4913369;29;19934;-84
2022/07/26 00:37:18;;;;;;;;;;;;;;;;;;4896920;29;20014;-85
2022/07/26 00:39:46;;;;;;;;;;;;;;;;;;4896885;29;20442;-86
2022/07/26 00:42:14;;;;;;;;;;;;;;;;;;4914525;29;19962;-86
2022/07/26 00:44:41;;;;;;;;;;;;;;;;;;4910269;29;19931;-85
2022/07/26 00:47:08;;;;;;;;;;;;;;;;;;4900518;29;19994;-86
2022/07/26 00:49:36;;;;;;;;;;;;;;;;;;4913842;29;19931;-86
2022/07/26 00:52:03;;;;;;;;;;;;;;;;;;4915233;29;19931;-86
2022/07/26 00:54:30;;;;;;;;;;;;;;;;;;4915417;29;19973;-86
2022/07/26 00:56:58;;;;;;;;;;;;;;;;;;4913466;29;20414;-87
2022/07/26 00:59:25;;;;;;;;;;;;;;;;;;4898381;29;19938;-87
2022/07/26 01:01:53;;;;;;;;;;;;;;;;;;4915430;29;19931;-87
2022/07/26 01:04:20;;;;;;;;;;;;;;;;;;4913929;29;19937;-86
2022/07/26 01:06:51;;;;;;;;;;;;;;;;;;4913157;29;20053;-86
2022/07/26 01:09:18;;;;;;;;;;;;;;;;;;4897296;29;20383;-86
2022/07/26 01:11:45;;;;;;;;;;;;;;;;;;4898270;29;19931;-86
2022/07/26 01:14:13;;;;;;;;;;;;;;;;;;4900533;29;19942;-86
2022/07/26 01:16:42;;;;;;;;;;;;;;;;;;4907463;29;20222;-86
2022/07/26 01:19:12;;;;;;;;;;;;;;;;;;4913265;29;19997;-85
2022/07/26 01:21:39;;;;;;;;;;;;;;;;;;4926104;29;19935;-86
2022/07/26 01:24:06;;;;;;;;;;;;;;;;;;4909367;29;19927;-85
2022/07/26 01:26:34;;;;;;;;;;;;;;;;;;4927134;29;20015;-85
2022/07/26 01:29:01;;;;;;;;;;;;;;;;;;4913631;29;20750;-86
2022/07/26 01:31:28;;;;;;;;;;;;;;;;;;4933557;29;19934;-85
2022/07/26 01:33:55;;;;;;;;;;;;;;;;;;4933082;29;19959;-85
2022/07/26 01:36:23;;;;;;;;;;;;;;;;;;4934669;29;19927;-85
2022/07/26 01:38:50;;;;;;;;;;;;;;;;;;4932828;29;20158;-85
2022/07/26 01:41:17;;;;;;;;;;;;;;;;;;4935508;29;19931;-84
2022/07/26 01:43:47;;;;;;;;;;;;;;;;;;4936277;29;19927;-85
2022/07/26 01:46:14;;;;;;;;;;;;;;;;;;4936603;29;19915;-85
2022/07/26 01:48:42;;;;;;;;;;;;;;;;;;4945042;29;19926;-84
2022/07/26 01:51:09;;;;;;;;;;;;;;;;;;4938165;29;20205;-85
2022/07/26 01:53:36;;;;;;;;;;;;;;;;;;4937289;29;19935;-85
2022/07/26 01:56:03;;;;;;;;;;;;;;;;;;4935886;29;19931;-85
2022/07/26 01:58:31;;;;;;;;;;;;;;;;;;4929714;29;19974;-86
2022/07/26 02:00:58;;;;;;;;;;;;;;;;;;4917796;29;19986;-85
2022/07/26 02:03:26;;;;;;;;;;;;;;;;;;4935672;29;19923;-85
2022/07/26 02:05:53;;;;;;;;;;;;;;;;;;4937643;29;20161;-85
2022/07/26 02:08:21;;;;;;;;;;;;;;;;;;4936378;29;19923;-86
2022/07/26 02:11:00;;;;;;;;;;;;;;;;;;4932813;29;19938;-86
2022/07/26 02:13:29;;;;;;;;;;;;;;;;;;4933349;29;19938;-86
2022/07/26 02:15:57;;;;;;;;;;;;;;;;;;4937893;29;19915;-86
2022/07/26 02:18:25;;;;;;;;;;;;;;;;;;4935404;29;19921;-86
2022/07/26 02:20:52;;;;;;;;;;;;;;;;;;4920265;29;19916;-88
2022/07/26 02:23:22;;;;;;;;;;;;;;;;;;4937201;29;20081;-87
2022/07/26 02:25:50;;;;;;;;;;;;;;;;;;4921945;29;19935;-86
2022/07/26 02:28:17;;;;;;;;;;;;;;;;;;4935281;29;19931;-86
2022/07/26 02:30:44;;;;;;;;;;;;;;;;;;4936679;29;19915;-86
2022/07/26 02:33:12;;;;;;;;;;;;;;;;;;4937318;29;19994;-87
2022/07/26 02:35:39;;;;;;;;;;;;;;;;;;4933338;29;19931;-87
2022/07/26 02:38:06;;;;;;;;;;;;;;;;;;4926074;29;19994;-86
2022/07/26 02:40:33;;;;;;;;;;;;;;;;;;4926654;29;19991;-86
2022/07/26 02:43:01;;;;;;;;;;;;;;;;;;4935167;29;19950;-87
2022/07/26 02:45:28;;;;;;;;;;;;;;;;;;4934301;29;19930;-87
2022/07/26 02:47:55;;;;;;;;;;;;;;;;;;4937307;29;19927;-87
2022/07/26 02:50:22;;;;;;;;;;;;;;;;;;4936728;29;19934;-87
2022/07/26 02:52:50;;;;;;;;;;;;;;;;;;4936525;29;20420;-88
2022/07/26 02:55:17;;;;;;;;;;;;;;;;;;4933560;29;19931;-87
2022/07/26 02:57:44;;;;;;;;;;;;;;;;;;4897467;29;20310;-87
2022/07/26 03:00:13;;;;;;;;;;;;;;;;;;4912690;29;19979;-87
2022/07/26 03:02:40;;;;;;;;;;;;;;;;;;4911867;29;19930;-87
2022/07/26 03:05:07;;;;;;;;;;;;;;;;;;4903866;29;19928;-86
2022/07/26 03:07:35;;;;;;;;;;;;;;;;;;4923384;29;19931;-87
2022/07/26 03:10:02;;;;;;;;;;;;;;;;;;4935560;29;20291;-87
2022/07/26 03:12:30;;;;;;;;;;;;;;;;;;4937005;29;19916;-88
2022/07/26 03:14:57;;;;;;;;;;;;;;;;;;4935445;29;19938;-87
2022/07/26 03:17:24;;;;;;;;;;;;;;;;;;4934055;29;19927;-87
2022/07/26 03:19:51;;;;;;;;;;;;;;;;;;4937183;29;19931;-90
2022/07/26 03:22:18;;;;;;;;;;;;;;;;;;4937767;29;19931;-87
2022/07/26 03:24:46;;;;;;;;;;;;;;;;;;4913029;29;19931;-86
2022/07/26 03:27:13;;;;;;;;;;;;;;;;;;4911336;29;19943;-87
2022/07/26 03:29:43;;;;;;;;;;;;;;;;;;4897249;29;19982;-87
2022/07/26 03:32:10;;;;;;;;;;;;;;;;;;4912464;29;19935;-87
2022/07/26 03:34:37;;;;;;;;;;;;;;;;;;4918981;29;19931;-87
2022/07/26 03:37:04;;;;;;;;;;;;;;;;;;4915706;29;19928;-85
2022/07/26 03:39:32;;;;;;;;;;;;;;;;;;4914758;29;19931;-85
2022/07/26 03:41:59;;;;;;;;;;;;;;;;;;4908446;29;19935;-88
2022/07/26 03:44:26;;;;;;;;;;;;;;;;;;4913343;29;19931;-87
2022/07/26 03:46:54;;;;;;;;;;;;;;;;;;4914130;29;19927;-87
2022/07/26 03:49:21;;;;;;;;;;;;;;;;;;4915298;29;20018;-87
2022/07/26 03:51:48;;;;;;;;;;;;;;;;;;4913016;29;19962;-87
2022/07/26 03:54:15;;;;;;;;;;;;;;;;;;4898233;29;19931;-88
2022/07/26 03:56:43;;;;;;;;;;;;;;;;;;4888647;29;19932;-86
2022/07/26 03:59:10;;;;;;;;;;;;;;;;;;4912984;29;19991;-87
2022/07/26 04:01:42;;;;;;;;;;;;;;;;;;4899747;29;19938;-86
2022/07/26 04:04:16;;;;;;;;;;;;;;;;;;4910150;29;19931;-87
2022/07/26 04:06:43;;;;;;;;;;;;;;;;;;4906863;29;20010;-87
2022/07/26 04:09:11;;;;;;;;;;;;;;;;;;4911556;29;19938;-87
2022/07/26 04:11:39;;;;;;;;;;;;;;;;;;4893829;29;20094;-87
2022/07/26 04:14:06;;;;;;;;;;;;;;;;;;4914194;29;19957;-87
2022/07/26 04:16:33;;;;;;;;;;;;;;;;;;4894653;29;19931;-87
2022/07/26 04:19:09;;;;;;;;;;;;;;;;;;4896480;29;19985;-87
2022/07/26 04:21:37;;;;;;;;;;;;;;;;;;4897358;29;19930;-86
2022/07/26 04:24:05;;;;;;;;;;;;;;;;;;4913366;29;19928;-87
2022/07/26 04:26:32;;;;;;;;;;;;;;;;;;4898098;29;19950;-87
2022/07/26 04:28:59;;;;;;;;;;;;;;;;;;4914367;29;19937;-87
2022/07/26 04:31:27;;;;;;;;;;;;;;;;;;4897409;29;19934;-87
2022/07/26 04:33:54;;;;;;;;;;;;;;;;;;4876100;29;19935;-87
2022/07/26 04:36:21;;;;;;;;;;;;;;;;;;4913579;29;19931;-87
2022/07/26 04:38:48;;;;;;;;;;;;;;;;;;4913479;29;19938;-87
2022/07/26 04:41:16;;;;;;;;;;;;;;;;;;4913200;29;19933;-88
2022/07/26 04:43:45;;;;;;;;;;;;;;;;;;4897442;29;20398;-86
2022/07/26 04:46:13;;;;;;;;;;;;;;;;;;4897463;29;19931;-87
2022/07/26 04:48:40;;;;;;;;;;;;;;;;;;4881249;29;19927;-87
2022/07/26 04:51:07;;;;;;;;;;;;;;;;;;4901967;29;19998;-88
2022/07/26 04:53:34;;;;;;;;;;;;;;;;;;4898119;29;19931;-87
2022/07/26 04:56:04;;;;;;;;;;;;;;;;;;4917818;29;20017;-87
2022/07/26 04:59:31;;;;;;;;;;;;;;;;;;4891884;29;19934;-87
2022/07/26 05:02:01;;;;;;;;;;;;;;;;;;4913840;29;19966;-87
2022/07/26 05:04:28;;;;;;;;;;;;;;;;;;4913811;29;19927;-87
2022/07/26 05:07:01;;;;;;;;;;;;;;;;;;4899088;29;20104;-87
2022/07/26 05:09:28;;;;;;;;;;;;;;;;;;4912323;29;20311;-87
2022/07/26 05:11:55;;;;;;;;;;;;;;;;;;4914614;29;20511;-87
2022/07/26 05:14:23;;;;;;;;;;;;;;;;;;4913573;29;20018;-88
2022/07/26 05:16:50;;;;;;;;;;;;;;;;;;4919846;29;19938;-87
2022/07/26 05:19:17;;;;;;;;;;;;;;;;;;4916130;29;20363;-87
2022/07/26 05:21:45;;;;;;;;;;;;;;;;;;4903274;29;19927;-88
2022/07/26 05:24:12;;;;;;;;;;;;;;;;;;4925231;29;19970;-86
2022/07/26 05:26:39;;;;;;;;;;;;;;;;;;4923849;29;19939;-87
2022/07/26 05:29:06;;;;;;;;;;;;;;;;;;4923033;29;19931;-87
2022/07/26 05:31:34;;;;;;;;;;;;;;;;;;4924125;29;19927;-87
2022/07/26 05:34:04;;;;;;;;;;;;;;;;;;4914258;29;20649;-85
2022/07/26 05:36:31;;;;;;;;;;;;;;;;;;4897345;29;19975;-86
2022/07/26 05:38:59;;;;;;;;;;;;;;;;;;4913614;29;19931;-87
2022/07/26 05:41:26;;;;;;;;;;;;;;;;;;4898599;29;19927;-88
2022/07/26 05:43:54;;;;;;;;;;;;;;;;;;4913624;29;20033;-88
2022/07/26 05:46:24;;;;;;;;;;;;;;;;;;4898460;29;19931;-87
2022/07/26 05:48:51;;;;;;;;;;;;;;;;;;4910117;29;19951;-87
2022/07/26 05:51:19;;;;;;;;;;;;;;;;;;4927574;29;20049;-87
2022/07/26 05:53:46;;;;;;;;;;;;;;;;;;4928295;29;20030;-86
2022/07/26 05:56:13;;;;;;;;;;;;;;;;;;4902987;29;19935;-87
2022/07/26 05:58:43;;;;;;;;;;;;;;;;;;4914101;29;20475;-87
2022/07/26 06:01:11;;;;;;;;;;;;;;;;;;4912592;29;20031;-87
2022/07/26 06:03:38;;;;;;;;;;;;;;;;;;4916808;29;19933;-88
2022/07/26 06:06:05;;;;;;;;;;;;;;;;;;4891352;29;19931;-88
2022/07/26 06:08:33;;;;;;;;;;;;;;;;;;4892397;29;19942;-87
2022/07/26 06:11:00;;;;;;;;;;;;;;;;;;4909337;29;19978;-89
2022/07/26 06:13:49;;;;;;;;;;;;;;;;;;4884689;29;19935;-88
2022/07/26 06:16:55;;;;;;;;;;;;;;;;;;4891828;29;20028;-88
2022/07/26 06:20:02;;;;;;;;;;;;;;;;;;4894087;29;19930;-88
2022/07/26 06:26:23;;;;;;;;;;;;;;;;;;4915248;29;20376;-88
2022/07/26 06:29:26;;;;;;;;;;;;;;;;;;4908808;29;19925;-87
2022/07/26 06:32:01;;;;;;;;;;;;;;;;;;4897420;29;19936;-89
2022/07/26 06:34:54;;;;;;;;;;;;;;;;;;;;;
2022/07/26 06:38:32;;;;;;;;;;;;;;;;;;4884539;29;19919;-88
2022/07/26 06:41:03;;;;;;;;;;;;;;;;;;4913837;29;19942;-87
2022/07/26 06:43:40;;;;;;;;;;;;;;;;;;4911003;29;19934;-87
2022/07/26 06:46:08;;;;;;;;;;;;;;;;;;4916592;29;19974;-85
2022/07/26 06:48:36;;;;;;;;;;;;;;;;;;4912354;29;20002;-84
2022/07/26 06:51:03;;;;;;;;;;;;;;;;;;4906057;29;19935;-85
2022/07/26 06:53:31;;;;;;;;;;;;;;;;;;4910911;29;19938;-84
2022/07/26 06:55:58;;;;;;;;;;;;;;;;;;4893083;29;20073;-86
2022/07/26 06:58:26;;;;;;;;;;;;;;;;;;4899186;29;19991;-86
2022/07/26 07:00:53;;;;;;;;;;;;;;;;;;4892553;29;21539;-86
2022/07/26 07:03:20;;;;;;;;;;;;;;;;;;4904019;29;20700;-86
2022/07/26 07:05:48;;;;;;;;;;;;;;;;;;4908928;29;19931;-87
2022/07/26 07:08:16;;;;;;;;;;;;;;;;;;4893786;29;20614;-86
2022/07/26 07:10:43;;;;;;;;;;;;;;;;;;4907846;29;19931;-87
2022/07/26 07:13:12;;;;;;;;;;;;;;;;;;4909548;29;19927;-86
2022/07/26 07:15:40;;;;;;;;;;;;;;;;;;4896180;29;19935;-86
2022/07/26 07:18:09;;;;;;;;;;;;;;;;;;4910858;29;19927;-86
2022/07/26 07:20:42;;;;;;;;;;;;;;;;;;4909674;29;19942;-86
2022/07/26 07:23:10;;;;;;;;;;;;;;;;;;4912220;29;19927;-92
2022/07/26 07:25:37;;;;;;;;;;;;;;;;;;4915250;29;19935;-86
2022/07/26 07:28:04;;;;;;;;;;;;;;;;;;4923253;29;19931;-87
2022/07/26 07:30:49;;;;;;;;;;;;;;;;;;4917403;29;19931;-86
2022/07/26 07:33:16;;;;;;;;;;;;;;;;;;4916516;29;20547;-86
2022/07/26 07:35:49;;;;;;;;;;;;;;;;;;4897890;29;19954;-86
2022/07/26 07:38:18;;;;;;;;;;;;;;;;;;4898120;29;20319;-85
2022/07/26 07:40:46;;;;;;;;;;;;;;;;;;4915890;29;19998;-87
2022/07/26 07:43:13;;;;;;;;;;;;;;;;;;4912868;29;20046;-88
2022/07/26 07:45:41;;;;;;;;;;;;;;;;;;4897502;29;19941;-86
2022/07/26 07:48:10;;;;;;;;;;;;;;;;;;4912506;29;19978;-87
2022/07/26 07:50:37;;;;;;;;;;;;;;;;;;4915079;29;20021;-86
2022/07/26 07:53:05;;;;;;;;;;;;;;;;;;4900348;29;19931;-86
2022/07/26 07:55:32;;;;;;;;;;;;;;;;;;4917941;29;19959;-85
2022/07/26 07:58:07;;;;;;;;;;;;;;;;;;4902231;29;19939;-86
2022/07/26 08:00:35;;;;;;;;;;;;;;;;;;4916721;29;20022;-86
2022/07/26 08:03:02;;;;;;;;;;;;;;;;;;4909342;29;19990;-85
2022/07/26 08:05:36;;;;;;;;;;;;;;;;;;4932942;29;19935;-86
2022/07/26 08:08:09;;;;;;;;;;;;;;;;;;4935539;29;19915;-85
2022/07/26 08:10:36;;;;;;;;;;;;;;;;;;4935110;29;20002;-85
2022/07/26 08:13:04;;;;;;;;;;;;;;;;;;4933464;29;19927;-86
2022/07/26 08:15:32;;;;;;;;;;;;;;;;;;4934320;29;19927;-86
2022/07/26 08:17:59;;;;;;;;;;;;;;;;;;4936519;29;19915;-86
2022/07/26 08:20:26;;;;;;;;;;;;;;;;;;4935678;29;19961;-87
2022/07/26 08:22:54;;;;;;;;;;;;;;;;;;4933297;29;19970;-87
2022/07/26 08:25:25;;;;;;;;;;;;;;;;;;4920334;29;19943;-86
2022/07/26 08:27:53;;;;;;;;;;;;;;;;;;4935660;29;19986;-87
2022/07/26 08:30:29;;;;;;;;;;;;;;;;;;4926683;29;19927;-87
2022/07/26 08:32:57;;;;;;;;;;;;;;;;;;4920851;29;19946;-87
2022/07/26 08:35:24;;;;;;;;;;;;;;;;;;4937548;29;19964;-87
2022/07/26 08:37:51;;;;;;;;;;;;;;;;;;4898772;29;19946;-87
2022/07/26 08:40:21;;;;;;;;;;;;;;;;;;4897644;29;19932;-87
2022/07/26 08:42:49;;;;;;;;;;;;;;;;;;4900242;29;19935;-87
2022/07/26 08:45:18;;;;;;;;;;;;;;;;;;4912350;29;20536;-87
2022/07/26 08:47:46;;;;;;;;;;;;;;;;;;4912610;29;19927;-87
2022/07/26 08:50:34;;;;;;;;;;;;;;;;;;4893704;29;19935;-87
2022/07/26 08:53:07;;;;;;;;;;;;;;;;;;4883042;29;19939;-87
2022/07/26 08:55:35;;;;;;;;;;;;;;;;;;4899763;29;20038;-88
2022/07/26 08:58:23;;;;;;;;;;;;;;;;;;4895100;29;19961;-87
2022/07/26 09:00:56;;;;;;;;;;;;;;;;;;4894154;29;19927;-88
2022/07/26 09:10:01;;;;;;;;;;;;;;;;;;4939391;28;20298;-75
2022/07/26 09:12:28;;;;;;;;;;;;;;;;;;4946452;29;20025;-74
2022/07/26 09:14:56;;;;;;;;;;;;;;;;;;4940536;28;20384;-74
2022/07/26 09:17:23;;;;;;;;;;;;;;;;;;4929405;29;19934;-74
2022/07/26 09:19:50;;;;;;;;;;;;;;;;;;4946348;29;19930;-75
2022/07/26 09:22:18;;;;;;;;;;;;;;;;;;4928466;29;19935;-75
2022/07/26 09:24:45;;;;;;;;;;;;;;;;;;4926611;29;19930;-75
2022/07/26 09:27:12;;;;;;;;;;;;;;;;;;4926340;29;20021;-75
2022/07/26 09:29:40;;;;;;;;;;;;;;;;;;4943038;28;19931;-75
2022/07/26 09:32:07;;;;;;;;;;;;;;;;;;4925854;29;19938;-75
2022/07/26 09:34:34;;;;;;;;;;;;;;;;;;4946310;28;19926;-75
2022/07/26 09:37:01;;;;;;;;;;;;;;;;;;4946497;28;19973;-76
2022/07/26 09:39:29;;;;;;;;;;;;;;;;;;4948532;28;20504;-75
2022/07/26 09:42:00;;;;;;;;;;;;;;;;;;4938145;29;20013;-76
2022/07/26 09:44:47;;;;;;;;;;;;;;;;;;4935136;29;19941;-76
2022/07/26 09:47:14;;;;;;;;;;;;;;;;;;4936971;28;19937;-76
2022/07/26 09:49:42;;;;;;;;;;;;;;;;;;4925788;29;20406;-76
2022/07/26 09:52:09;;;;;;;;;;;;;;;;;;4939404;28;19938;-76
2022/07/26 09:54:37;;;;;;;;;;;;;;;;;;4923019;28;19942;-76
2022/07/26 09:57:05;;;;;;;;;;;;;;;;;;4943290;28;19930;-76
2022/07/26 09:59:32;;;;;;;;;;;;;;;;;;4935977;28;19931;-76
2022/07/26 10:01:59;;;;;;;;;;;;;;;;;;4939286;28;19981;-76
2022/07/26 10:04:27;;;;;;;;;;;;;;;;;;4932406;28;19930;-76
2022/07/26 10:06:56;;;;;;;;;;;;;;;;;;4938259;28;20406;-76
2022/07/26 10:09:24;;;;;;;;;;;;;;;;;;4941528;28;20589;-76
2022/07/26 10:11:51;;;;;;;;;;;;;;;;;;4945368;28;20009;-75
2022/07/26 10:14:19;;;;;;;;;;;;;;;;;;4948368;29;19985;-76
2022/07/26 10:16:46;;;;;;;;;;;;;;;;;;4948388;29;20533;-77
2022/07/26 10:19:13;;;;;;;;;;;;;;;;;;4947383;29;19926;-76
2022/07/26 10:21:40;;;;;;;;;;;;;;;;;;4937486;28;19931;-76
2022/07/26 10:24:08;;;;;;;;;;;;;;;;;;4940720;28;19941;-77
2022/07/26 10:26:36;;;;;;;;;;;;;;;;;;4938220;28;19934;-77
2022/07/26 10:29:03;;;;;;;;;;;;;;;;;;4937527;29;19930;-76
2022/07/26 10:31:31;;;;;;;;;;;;;;;;;;4947191;28;20223;-77
2022/07/26 10:33:58;;;;;;;;;;;;;;;;;;4940276;29;19927;-76
2022/07/26 10:36:25;;;;;;;;;;;;;;;;;;4935766;29;19978;-76
2022/07/26 10:38:54;;;;;;;;;;;;;;;;;;4940369;29;20425;-76
2022/07/26 10:41:21;;;;;;;;;;;;;;;;;;4938757;29;20407;-74
2022/07/26 10:43:48;;;;;;;;;;;;;;;;;;4941420;29;19938;-75
2022/07/26 10:46:16;;;;;;;;;;;;;;;;;;4947472;29;20438;-74
2022/07/26 10:48:44;;;;;;;;;;;;;;;;;;4949703;28;19937;-74
2022/07/26 10:51:11;;;;;;;;;;;;;;;;;;4947520;29;20384;-74
2022/07/26 10:53:38;;;;;;;;;;;;;;;;;;4949860;28;19958;-74
2022/07/26 10:56:05;;;;;;;;;;;;;;;;;;4939997;28;20026;-78
2022/07/26 10:58:33;;;;;;;;;;;;;;;;;;4945751;29;20406;-78
2022/07/26 11:01:00;;;;;;;;;;;;;;;;;;4944458;28;20342;-75
2022/07/26 11:03:27;;;;;;;;;;;;;;;;;;4950620;29;19930;-76
2022/07/26 11:05:54;;;;;;;;;;;;;;;;;;4948494;29;19930;-75
2022/07/26 11:08:22;;;;;;;;;;;;;;;;;;4951446;28;20560;-75
2022/07/26 11:10:49;;;;;;;;;;;;;;;;;;4943470;29;20030;-75
2022/07/26 11:13:16;;;;;;;;;;;;;;;;;;4936462;28;19934;-78
2022/07/26 11:15:43;;;;;;;;;;;;;;;;;;4938163;28;20734;-74
2022/07/26 11:18:11;;;;;;;;;;;;;;;;;;4943204;29;19938;-76
2022/07/26 11:20:38;;;;;;;;;;;;;;;;;;4980998;23;19930;-82
2022/07/26 11:23:05;;;;;;;;;;;;;;;;;;4964416;28;19949;-81
2022/07/26 11:25:32;;;;;;;;;;;;;;;;;;4975647;28;19930;-82
2022/07/26 11:28:00;;;;;;;;;;;;;;;;;;4977704;28;19927;-83
2022/07/26 11:30:27;;;;;;;;;;;;;;;;;;4952276;29;19926;-85
2022/07/26 11:32:57;;;;;;;;;;;;;;;;;;4954993;28;20013;-83
2022/07/26 11:35:25;;;;;;;;;;;;;;;;;;4941961;29;19930;-82
2022/07/26 11:37:56;;;;;;;;;;;;;;;;;;4936092;29;22466;-82
2022/07/26 11:40:35;;;;;;;;;;;;;;;;;;4951795;28;19947;-83
2022/07/26 11:43:02;;;;;;;;;;;;;;;;;;4950378;28;19927;-82
2022/07/26 11:45:29;;;;;;;;;;;;;;;;;;4953501;28;19934;-83
2022/07/26 11:47:57;;;;;;;;;;;;;;;;;;4952828;29;20300;-83
2022/07/26 11:50:25;;;;;;;;;;;;;;;;;;4951316;28;19997;-81
2022/07/26 11:52:52;;;;;;;;;;;;;;;;;;4950262;28;19956;-83
2022/07/26 11:55:19;;;;;;;;;;;;;;;;;;4958321;28;20033;-82
2022/07/26 11:57:52;;;;;;;;;;;;;;;;;;4960964;28;19930;-84
2022/07/26 12:00:20;;;;;;;;;;;;;;;;;;4937896;29;20285;-84
2022/07/26 12:02:51;;;;;;;;;;;;;;;;;;4939409;28;19930;-83
2022/07/26 12:05:25;;;;;;;;;;;;;;;;;;4952640;28;19937;-82
2022/07/26 12:07:53;;;;;;;;;;;;;;;;;;4955972;28;20252;-83
2022/07/26 12:10:20;;;;;;;;;;;;;;;;;;4935694;29;19953;-83
2022/07/26 12:12:50;;;;;;;;;;;;;;;;;;4945003;29;20685;-83
2022/07/26 12:15:17;;;;;;;;;;;;;;;;;;4954898;29;19942;-82
2022/07/26 12:17:45;;;;;;;;;;;;;;;;;;4937846;29;19961;-83
2022/07/26 12:20:12;;;;;;;;;;;;;;;;;;4953585;28;19962;-82
2022/07/26 12:22:40;;;;;;;;;;;;;;;;;;4956335;28;19964;-81
2022/07/26 12:25:07;;;;;;;;;;;;;;;;;;4925743;29;19931;-83
2022/07/26 12:27:34;;;;;;;;;;;;;;;;;;4960705;28;19926;-82
2022/07/26 12:30:02;;;;;;;;;;;;;;;;;;4916951;29;19927;-82
2022/07/26 12:32:30;;;;;;;;;;;;;;;;;;4940584;28;19989;-83
2022/07/26 12:34:58;;;;;;;;;;;;;;;;;;4922231;29;19936;-84
2022/07/26 12:37:28;;;;;;;;;;;;;;;;;;4920235;29;20435;-82
2022/07/26 12:40:07;;;;;;;;;;;;;;;;;;4957013;28;19930;-83
2022/07/26 12:42:34;;;;;;;;;;;;;;;;;;4952585;28;19931;-85
2022/07/26 12:45:02;;;;;;;;;;;;;;;;;;4941307;28;20001;-85
2022/07/26 12:47:34;;;;;;;;;;;;;;;;;;4956756;28;19931;-84
2022/07/26 12:50:02;;;;;;;;;;;;;;;;;;4931077;29;19927;-83
2022/07/26 12:52:29;;;;;;;;;;;;;;;;;;4967302;28;20361;-84
2022/07/26 12:55:00;;;;;;;;;;;;;;;;;;4939205;28;19969;-83
2022/07/26 12:57:27;;;;;;;;;;;;;;;;;;4952481;28;19981;-85
2022/07/26 12:59:54;;;;;;;;;;;;;;;;;;4937354;29;19966;-82
2022/07/26 13:02:22;;;;;;;;;;;;;;;;;;4936622;29;19986;-81
2022/07/26 13:04:49;;;;;;;;;;;;;;;;;;4936945;29;19930;-82
2022/07/26 13:07:16;;;;;;;;;;;;;;;;;;4954450;29;20331;-83
2022/07/26 13:09:44;;;;;;;;;;;;;;;;;;4937982;28;19965;-84
2022/07/26 13:12:13;;;;;;;;;;;;;;;;;;4931771;29;20016;-83
2022/07/26 13:14:41;;;;;;;;;;;;;;;;;;4935553;29;19942;-84
2022/07/26 13:17:08;;;;;;;;;;;;;;;;;;4936371;29;20308;-82
2022/07/26 13:19:35;;;;;;;;;;;;;;;;;;4953648;28;19934;-83
2022/07/26 13:22:03;;;;;;;;;;;;;;;;;;4951944;28;19973;-83
2022/07/26 13:24:30;;;;;;;;;;;;;;;;;;4938009;29;19927;-84
2022/07/26 13:26:57;;;;;;;;;;;;;;;;;;4939907;29;19942;-84
2022/07/26 13:29:24;;;;;;;;;;;;;;;;;;4951679;28;19930;-85
2022/07/26 13:31:55;;;;;;;;;;;;;;;;;;4961030;28;19965;-85
2022/07/26 13:34:22;;;;;;;;;;;;;;;;;;4962752;28;19972;-84
2022/07/26 13:36:50;;;;;;;;;;;;;;;;;;4967206;28;19914;-84
2022/07/26 13:39:17;;;;;;;;;;;;;;;;;;4960308;28;20388;-83
2022/07/26 13:41:44;;;;;;;;;;;;;;;;;;4950101;28;19942;-83
2022/07/26 13:44:11;;;;;;;;;;;;;;;;;;4954310;28;20311;-85
2022/07/26 13:46:39;;;;;;;;;;;;;;;;;;4951349;28;20281;-84
2022/07/26 13:49:11;;;;;;;;;;;;;;;;;;4941142;29;19931;-84
2022/07/26 13:51:56;;;;;;;;;;;;;;;;;;4950233;28;19930;-83
2022/07/26 13:54:24;;;;;;;;;;;;;;;;;;4949130;28;19931;-83
2022/07/26 13:56:51;;;;;;;;;;;;;;;;;;4930451;29;20389;-83
2022/07/26 13:59:18;;;;;;;;;;;;;;;;;;4933644;29;19930;-83
2022/07/26 14:01:45;;;;;;;;;;;;;;;;;;4949479;28;19989;-83
2022/07/26 14:04:13;;;;;;;;;;;;;;;;;;4950332;28;20199;-84
2022/07/26 14:06:41;;;;;;;;;;;;;;;;;;4953776;28;19930;-83
2022/07/26 14:09:08;;;;;;;;;;;;;;;;;;4951869;29;19930;-84
2022/07/26 14:11:40;;;;;;;;;;;;;;;;;;4949569;28;19990;-84
2022/07/26 14:14:07;;;;;;;;;;;;;;;;;;4943728;28;19930;-82
2022/07/26 14:16:35;;;;;;;;;;;;;;;;;;4932289;29;20025;-87
2022/07/26 14:19:05;;;;;;;;;;;;;;;;;;4939952;29;19940;-81
2022/07/26 14:21:32;;;;;;;;;;;;;;;;;;4945482;28;19930;-82
2022/07/26 14:24:09;;;;;;;;;;;;;;;;;;4955536;28;19931;-83
2022/07/26 14:26:37;;;;;;;;;;;;;;;;;;4957049;28;19930;-81
2022/07/26 14:29:06;;;;;;;;;;;;;;;;;;4949755;28;19946;-82
2022/07/26 14:31:39;;;;;;;;;;;;;;;;;;4932531;29;19942;-84
2022/07/26 14:34:10;;;;;;;;;;;;;;;;;;4932828;28;19930;-83
2022/07/26 14:36:53;;;;;;;;;;;;;;;;;;4950117;29;19930;-82
2022/07/26 14:39:21;;;;;;;;;;;;;;;;;;4930838;29;20353;-83
2022/07/26 14:41:49;;;;;;;;;;;;;;;;;;4941281;29;20111;-84
2022/07/26 14:44:26;;;;;;;;;;;;;;;;;;;;;
2022/07/26 14:47:53;;;;;;;;;;;;;;;;;;4953809;28;19926;-82
2022/07/26 14:50:26;;;;;;;;;;;;;;;;;;4923512;28;20021;-84
2022/07/26 14:52:53;;;;;;;;;;;;;;;;;;4948748;28;19930;-83
2022/07/26 14:55:23;;;;;;;;;;;;;;;;;;4919639;28;19945;-83
2022/07/26 14:57:54;;;;;;;;;;;;;;;;;;4948571;28;19930;-83
2022/07/26 15:00:21;;;;;;;;;;;;;;;;;;4948806;28;19934;-83
2022/07/26 15:02:48;;;;;;;;;;;;;;;;;;4951931;28;19972;-84
2022/07/26 15:05:16;;;;;;;;;;;;;;;;;;4948978;29;19930;-82
2022/07/26 15:07:43;;;;;;;;;;;;;;;;;;4945036;28;20464;-81
2022/07/26 15:10:10;;;;;;;;;;;;;;;;;;4921793;29;19931;-81
2022/07/26 15:12:38;;;;;;;;;;;;;;;;;;4948040;29;19957;-81
2022/07/26 15:15:05;;;;;;;;;;;;;;;;;;4944901;29;19931;-84
2022/07/26 15:17:32;;;;;;;;;;;;;;;;;;4952380;29;20594;-83
2022/07/26 15:20:01;;;;;;;;;;;;;;;;;;4950842;28;20020;-83
2022/07/26 15:22:28;;;;;;;;;;;;;;;;;;4932543;29;19926;-83
2022/07/26 15:24:55;;;;;;;;;;;;;;;;;;4955949;28;20045;-81
2022/07/26 15:27:24;;;;;;;;;;;;;;;;;;4956286;28;19953;-82
2022/07/26 15:29:51;;;;;;;;;;;;;;;;;;4953532;28;20396;-82
2022/07/26 15:32:18;;;;;;;;;;;;;;;;;;4947970;28;19930;-83
2022/07/26 15:34:46;;;;;;;;;;;;;;;;;;4951003;28;20009;-83
2022/07/26 15:37:14;;;;;;;;;;;;;;;;;;4928465;29;20374;-82
2022/07/26 15:39:41;;;;;;;;;;;;;;;;;;4940709;28;19926;-83
2022/07/26 15:42:08;;;;;;;;;;;;;;;;;;4944274;28;19931;-83
2022/07/26 15:44:37;;;;;;;;;;;;;;;;;;4950483;28;19934;-83
2022/07/26 15:47:04;;;;;;;;;;;;;;;;;;4943356;28;19930;-82
2022/07/26 15:49:32;;;;;;;;;;;;;;;;;;4947564;28;19931;-81
2022/07/26 15:52:01;;;;;;;;;;;;;;;;;;4949389;28;20030;-84
2022/07/26 15:54:29;;;;;;;;;;;;;;;;;;4954122;28;19953;-83
2022/07/26 15:56:56;;;;;;;;;;;;;;;;;;4949043;28;20017;-83
2022/07/26 15:59:24;;;;;;;;;;;;;;;;;;4949624;29;19934;-82
2022/07/26 16:01:51;;;;;;;;;;;;;;;;;;4954578;28;19937;-84
2022/07/26 16:04:18;;;;;;;;;;;;;;;;;;4973003;28;19965;-83
2022/07/26 16:06:46;;;;;;;;;;;;;;;;;;4948761;29;19994;-84
2022/07/26 16:09:15;;;;;;;;;;;;;;;;;;4946489;29;19910;-83
2022/07/26 16:11:44;;;;;;;;;;;;;;;;;;4942673;29;20296;-83
2022/07/26 16:14:12;;;;;;;;;;;;;;;;;;4939038;28;19930;-82
2022/07/26 16:16:39;;;;;;;;;;;;;;;;;;4954711;28;19931;-82
2022/07/26 16:19:06;;;;;;;;;;;;;;;;;;4953903;28;19941;-83
2022/07/26 16:21:34;;;;;;;;;;;;;;;;;;4953583;28;20021;-81
2022/07/26 16:24:01;;;;;;;;;;;;;;;;;;4953055;29;19927;-81
2022/07/26 16:26:33;;;;;;;;;;;;;;;;;;4932763;29;19935;-83
2022/07/26 16:29:00;;;;;;;;;;;;;;;;;;4936322;28;19930;-82
2022/07/26 16:31:27;;;;;;;;;;;;;;;;;;4932789;29;19938;-82
2022/07/26 16:33:54;;;;;;;;;;;;;;;;;;4952128;28;20009;-83
2022/07/26 16:36:22;;;;;;;;;;;;;;;;;;4952130;28;19931;-81
2022/07/26 16:38:49;;;;;;;;;;;;;;;;;;4948329;28;19934;-80
2022/07/26 16:41:16;;;;;;;;;;;;;;;;;;4952856;28;20575;-82
2022/07/26 16:43:43;;;;;;;;;;;;;;;;;;4949683;29;20025;-83
2022/07/26 16:46:10;;;;;;;;;;;;;;;;;;4914947;29;19930;-82
2022/07/26 16:48:40;;;;;;;;;;;;;;;;;;4950411;28;19938;-85
2022/07/26 16:51:12;;;;;;;;;;;;;;;;;;4918203;28;19934;-83
2022/07/26 16:53:42;;;;;;;;;;;;;;;;;;4933419;28;20401;-84
2022/07/26 16:56:10;;;;;;;;;;;;;;;;;;4949185;28;19930;-80
2022/07/26 16:58:37;;;;;;;;;;;;;;;;;;4952747;28;19934;-82
2022/07/26 17:01:04;;;;;;;;;;;;;;;;;;4931310;29;20468;-79
2022/07/26 17:03:32;;;;;;;;;;;;;;;;;;4954314;28;19930;-81
2022/07/26 17:06:02;;;;;;;;;;;;;;;;;;4945985;28;19930;-83
2022/07/26 17:08:32;;;;;;;;;;;;;;;;;;4949371;28;20408;-82